Tiempo atmosférico en la estación meteorológica de Bossòst, Lleida (725 m.)



Fecha
DESCASC
Temp. máxima en grados centígrados (hora)
DESCASC
Temp. mínima en grados centígrados (hora)
DESCASC
Temp. media en grados centígrados
DESCASC
Racha de viento máxima en m/sg (hora)
DESCASC
Velocidad máxima media en intervalos de 10 minutos(hora)
DESCASC
Precipitaciones diarias en mm
DESCASC
Precipitaciones de 00:00 a 06:00 en mm
DESCASC
Precipitaciones de 06:00 a 12:00 en mm
DESCASC
Precipitaciones de 12:00 a 18:00 en mm
DESCASC
Precipitaciones de 18:00 a 24:00 en mm
DESCASC
14-12-2019 14.3 (14:00) 3.7 (23:50) 9 7.22 (19:30) 4.44 (19:30) -- -- -- -- --
13-12-2019 13 (12:00) 2.9 (00:10) 8 18.06 (13:50) 7.22 (02:20) -- -- -- -- --
12-12-2019 7.9 (14:20) 2.2 (08:50) 5.1 11.11 (18:50) 6.94 (21:20) -- -- -- -- --
11-12-2019 9.3 (12:30) 0.4 (00:00) 4.9 8.33 (14:30) 4.44 (14:30) -- -- -- -- --
10-12-2019 8.9 (13:30) 0.4 (00:00) 4.6 6.94 (23:59) 4.72 (15:00) -- -- -- -- --
09-12-2019 8.3 (13:30) 0.7 (00:00) 4.5 13.89 (13:20) 6.67 (04:00) -- -- -- -- --
08-12-2019 13.8 (14:10) -1.5 (-00:0) 6.2 7.22 (02:10) 4.72 (02:20) -- -- -- -- --
07-12-2019 13.3 (14:20) -0.5 (-00:0) 6.4 7.22 (02:20) 5.28 (02:20) -- -- -- -- --
06-12-2019 13 (14:20) -0.6 (-00:0) 6.2 6.39 (01:40) 4.72 (01:40) -- -- -- -- --
05-12-2019 9.6 (16:00) 1.1 (00:00) 5.4 4.17 (23:50) 2.22 (23:30) -- -- -- -- --
04-12-2019 8.1 (15:40) -1.4 (-00:0) 3.4 3.89 (23:20) 1.94 (21:10) -- -- -- 0 0
03-12-2019 7.4 (13:50) -1.1 (-00:0) 3.2 5.28 (20:50) 3.89 (20:50) -- -- -- -- --
02-12-2019 8.9 (13:20) 1.2 (00:00) 5 4.17 (14:40) 2.5 (12:30) -- -- -- -- --
01-12-2019 11.1 (14:00) 0.8 (00:00) 6 13.61 (02:40) 8.06 (02:40) -- -- -- -- --
30-11-2019 19.6 (13:50) -1.2 (-00:0) 9.2 10.56 (13:40) 5.83 (13:40) -- -- -- -- --
29-11-2019 13.4 (14:20) 1 (00:00) 7.2 5.83 (00:10) 3.89 (00:10) -- -- -- -- --
28-11-2019 12.9 (14:00) 3.4 (00:00) 8.1 6.67 (09:50) 4.17 (09:50) 0.2 0.2 0 0 0
27-11-2019 15.1 (01:10) 5.1 (00:00) 10.1 9.17 (00:40) 3.61 (00:40) 1.2 1.2 0 0 0
26-11-2019 17.7 (19:20) 1.1 (00:00) 9.4 11.11 (19:30) 6.67 (19:30) -- -- -- 0 0
25-11-2019 11.7 (16:00) 2.6 (00:00) 7.1 8.89 (03:10) 5 (03:10) -- -- -- -- --
24-11-2019 9 (14:40) 2 (00:00) 5.5 5 (20:20) 3.61 (22:10) -- -- -- -- --
23-11-2019 9 (00:10) 2 (00:00) 5.5 10.28 (16:20) 5 (16:20) 5.6 0.6 0 4.8 0.2
22-11-2019 13.3 (14:20) -2.3 (-00:0) 5.5 16.67 (12:10) 9.72 (11:30) -- -- -- -- --
21-11-2019 11.4 (14:30) -1.6 (-00:0) 4.9 8.61 (00:40) 3.89 (03:30) -- -- -- -- --
20-11-2019 11.3 (14:30) -4 (-00:0) 3.7 11.94 (14:30) 7.78 (14:30) -- -- -- -- --
19-11-2019 7.5 (14:40) -3.7 (-00:0) 1.9 6.94 (03:00) 4.72 (03:00) -- -- -- -- --
18-11-2019 3.4 (15:30) -1 (-00:0) 1.2 5 (13:50) 2.78 (13:50) -- -- -- -- --
17-11-2019 8.3 (15:00) 0.7 (00:00) 4.5 4.44 (00:40) 2.78 (00:40) -- -- -- -- --
16-11-2019 7.5 (13:10) -2.8 (-00:0) 2.4 8.89 (11:20) 5.56 (11:20) -- -- -- -- --
15-11-2019 6.2 (14:30) -2.9 (-00:0) 1.6 7.22 (01:10) 4.44 (01:10) -- -- -- -- --

Gráficas

Temp. máximas Temp. mínimas Temp. medias Precipitaciones Rachas de viento máximas Velocidades máximas media en intervalos de 10 minutos

Datos horarios

Fecha y hora oficial Temperatura (ºC) Velocidad del viento (km/h) Dirección del viento Racha (km/h) Dirección de racha Precipitación (mm) Presión (hPa) Tendencia (hPa) Humedad (%)
2019-12-14 23:00:00 4.2 5 Sudoeste 12 Sudoeste 0.2 -- -- 98
2019-12-14 22:00:00 5.1 4 Sudoeste 14 Sudoeste 0.2 -- -- 96
2019-12-14 21:00:00 6 3 Sudoeste 19 Sudoeste 0.2 -- -- 94
2019-12-14 20:00:00 6.5 10 Sudoeste 26 Sudoeste 0.4 -- -- 93
2019-12-14 19:00:00 6.9 8 Sudoeste 17 Sudoeste 0.2 -- -- 93
2019-12-14 18:00:00 7.3 8 Sudoeste 14 Sudoeste 0.4 -- -- 96
2019-12-14 17:00:00 7.9 5 Sudoeste 16 Sudoeste 0.2 -- -- 93
2019-12-14 16:00:00 9.3 8 Sur 16 Sur 0.4 -- -- 90
2019-12-14 15:00:00 11.7 8 Sudoeste 14 Sudoeste 0.4 -- -- 81
2019-12-14 14:00:00 14.3 5 Sur 9 Sudoeste 0.4 -- -- 71
2019-12-14 13:00:00 13.3 2 Sur 6 Este 0.4 -- -- 77
2019-12-14 12:00:00 10.3 3 Nordeste 6 Este 0.4 -- -- 89
2019-12-14 11:00:00 7.8 0 Calma 6 Nordeste 0.4 -- -- 92
2019-12-14 10:00:00 6.5 3 Nordeste 17 Sudoeste 0.2 -- -- 96
2019-12-14 09:00:00 5.6 10 Sudoeste 24 Sudoeste 0.4 -- -- 98
2019-12-14 08:00:00 4.9 9 Sudoeste 15 Sudoeste 0.4 -- -- 99
2019-12-14 07:00:00 5.3 4 Sur 13 Sudoeste 0.4 -- -- 97
2019-12-14 06:00:00 6.1 7 Sudoeste 17 Sudoeste 0.2 -- -- 98
2019-12-14 05:00:00 6.1 2 Sur 13 Sudoeste 0.4 -- -- 98
2019-12-14 04:00:00 6.6 2 Sudoeste 10 Sudoeste 0.4 -- -- 99
2019-12-14 03:00:00 5.9 3 Sudoeste 11 Sudoeste 0.4 -- -- 99
2019-12-14 02:00:00 7.3 3 Sudeste 6 Nordeste 0.4 -- -- 99
2019-12-14 01:00:00 7.4 2 Este 6 Sudoeste 0.4 -- -- 99
2019-12-14 00:00:00 8.1 3 Sudeste 10 Oeste 0.4 -- -- 97
2019-12-13 23:00:00 8.4 3 Este 6 Noroeste 0.6 -- -- 99
2019-12-13 22:00:00 9 5 Sur 9 Noroeste 0.4 -- -- 98
2019-12-13 21:00:00 9.6 5 Sudeste 14 Nordeste 0.4 -- -- 96
2019-12-13 20:00:00 8.8 4 Sudeste 11 Sudoeste 0.6 -- -- 100
2019-12-13 19:00:00 8.6 4 Nordeste 7 Nordeste 0.4 -- -- 100
2019-12-13 18:00:00 8.7 5 Sudeste 9 Sudeste 0.4 -- -- 98
2019-12-13 17:00:00 9.6 4 Norte 22 Noroeste 0.6 -- -- 92
2019-12-13 16:00:00 9.3 6 Sudoeste 17 Nordeste 0.4 -- -- 93
2019-12-13 15:00:00 9.4 17 Nordeste 44 Norte 0.4 -- -- 93
2019-12-13 14:00:00 12.2 24 Nordeste 65 Nordeste 0.6 -- -- 74
2019-12-13 13:00:00 11.6 8 Sur 65 Norte 0.4 -- -- 76
2019-12-13 12:00:00 13 23 Nordeste 46 Nordeste 0.4 -- -- 64
2019-12-13 11:00:00 9.9 14 Sudoeste 28 Sur 0.6 -- -- 88
2019-12-13 10:00:00 11.9 14 Nordeste 41 Norte 0.4 -- -- 71
2019-12-13 09:00:00 7 8 Sur 22 Sur 0.4 -- -- 100
2019-12-13 08:00:00 5.2 4 Sur 18 Sudoeste 0.4 -- -- 99
2019-12-13 07:00:00 4.8 7 Sudoeste 27 Sudoeste 0.4 -- -- 97
2019-12-13 06:00:00 4.8 21 Sudoeste 36 Sudoeste 0.4 -- -- 96
2019-12-13 05:00:00 4.6 26 Sudoeste 45 Sudoeste 0.4 -- -- 95
2019-12-13 04:00:00 4.2 24 Sudoeste 34 Sudoeste 0.4 -- -- 96
2019-12-13 03:00:00 3.9 20 Sudoeste 39 Sudoeste 0.2 -- -- 96
2019-12-13 02:00:00 3.4 20 Sudoeste 40 Sudoeste 0.4 -- -- 96
2019-12-13 01:00:00 3.2 22 Sudoeste 33 Sudoeste 0.2 -- -- 96
2019-12-13 00:00:00 3 15 Sudoeste 30 Sudoeste 0.4 -- -- 96
2019-12-12 23:00:00 3.1 20 Sudoeste 32 Sudoeste 0.2 -- -- 96
2019-12-12 22:00:00 3.2 19 Sudoeste 33 Sudoeste 0.2 -- -- 95
2019-12-12 21:00:00 3.2 19 Sudoeste 31 Sudoeste 0.4 -- -- 95
2019-12-12 20:00:00 3.9 19 Sudoeste 32 Sudoeste 0.2 -- -- 93
2019-12-12 19:00:00 4.7 19 Sudoeste 40 Sudoeste 0 -- -- 91
2019-12-12 18:00:00 5.5 18 Sudoeste 35 Sudoeste 0.2 -- -- 88
2019-12-12 17:00:00 7 9 Sudoeste 15 Sudeste 0 -- -- 82
2019-12-12 16:00:00 7.6 4 Nordeste 11 Nordeste 0 -- -- 82
2019-12-12 15:00:00 7.7 3 Nordeste 5 Nordeste 0 -- -- 82
2019-12-12 14:00:00 7.8 2 Norte 10 Sur 0 -- -- 76
2019-12-12 13:00:00 7.8 0 Calma 20 Sudoeste 0.2 -- -- 74
2019-12-12 12:00:00 6.7 9 Sudoeste 17 Sudoeste 0.2 -- -- 83
2019-12-12 11:00:00 4.9 0 Calma 10 Sudoeste 0.4 -- -- 92
2019-12-12 10:00:00 2.9 10 Sudoeste 15 Sudoeste 0.2 -- -- 98
2019-12-12 09:00:00 2.4 8 Sudoeste 12 Sudoeste 0.2 -- -- 99
2019-12-12 08:00:00 2.6 2 Sudoeste 9 Sudoeste 0.4 -- -- 99
2019-12-12 07:00:00 2.7 3 Sudoeste 6 Sudoeste 0.2 -- -- 100
2019-12-12 06:00:00 2.7 0 Calma 4 Este 0.4 -- -- 99
2019-12-12 05:00:00 2.8 3 Este 7 Sudeste 0.4 -- -- 99
2019-12-12 04:00:00 2.7 0 Calma 5 Oeste 0.2 -- -- 100
2019-12-12 03:00:00 2.7 0 Calma 4 Este 0.4 -- -- 100
2019-12-12 02:00:00 2.6 3 Norte 6 Norte 0.2 -- -- 100
2019-12-12 01:00:00 2.3 4 Oeste 8 Noroeste 0.2 -- -- 99
2019-12-12 00:00:00 2.3 3 Sudeste 9 Sudeste 0.2 -- -- 98
2019-12-11 23:00:00 1.7 4 Este 10 Este 0.4 -- -- 99
2019-12-11 22:00:00 1.7 3 Norte 12 Sudoeste 0 -- -- 98
2019-12-11 21:00:00 1.3 8 Sudoeste 22 Sudoeste 0.4 -- -- 98
2019-12-11 20:00:00 0.4 2 Sudoeste 8 Sur 0.2 -- -- 98
2019-12-11 19:00:00 1.1 2 Norte 7 Oeste 0.4 -- -- 97
2019-12-11 18:00:00 2.3 3 Sudeste 6 Sur 0.2 -- -- 96
2019-12-11 17:00:00 4 0 Calma 25 Norte 0.4 -- -- 89
2019-12-11 16:00:00 4.6 14 Norte 28 Norte 0.4 -- -- 89
2019-12-11 15:00:00 5.2 13 Norte 30 Norte 0.4 -- -- 87
2019-12-11 14:00:00 6.2 7 Norte 14 Noroeste 0.4 -- -- 90
2019-12-11 13:00:00 8.1 5 Norte 20 Norte 0 -- -- 83
2019-12-11 12:00:00 8.3 2 Nordeste 12 Este 0 -- -- 69
2019-12-11 11:00:00 5.9 2 Norte 9 Sudeste 0 -- -- 77
2019-12-11 10:00:00 4.5 3 Nordeste 12 Sur 0 -- -- 81
2019-12-11 09:00:00 2.7 3 Sur 13 Oeste 0 -- -- 86
2019-12-11 08:00:00 2.6 3 Sur 14 Sudoeste 0 -- -- 89
2019-12-11 07:00:00 2.5 9 Sur 22 Sudoeste 0 -- -- 86
2019-12-11 06:00:00 2.1 4 Sur 10 Sudoeste 0 -- -- 90
2019-12-11 05:00:00 2 3 Nordeste 7 Sur 0 -- -- 90
2019-12-11 04:00:00 2.7 2 Sudeste 10 Sudoeste 0 -- -- 87
2019-12-11 03:00:00 2.7 5 Sur 19 Sudoeste 0 -- -- 82
2019-12-11 02:00:00 1.8 5 Sur 16 Sudoeste 0 -- -- 85
2019-12-11 01:00:00 1.5 3 Noroeste 21 Sudoeste 0 -- -- 85
2019-12-11 00:00:00 1.7 16 Sudoeste 25 Sudoeste 0 -- -- 86
2019-12-10 23:00:00 1.3 12 Sudoeste 18 Sur 0 -- -- 90
2019-12-10 22:00:00 1.5 8 Sudoeste 16 Sudoeste 0 -- -- 91
2019-12-10 21:00:00 2.1 12 Sudoeste 21 Sudoeste 0 -- -- 88
2019-12-10 20:00:00 1.9 14 Sudoeste 22 Sudoeste 0 -- -- 90
2019-12-10 19:00:00 1.6 15 Sudoeste 24 Sudoeste 0 -- -- 93
2019-12-10 18:00:00 2.3 13 Sudoeste 23 Sudoeste 0 -- -- 92
2019-12-10 17:00:00 2.7 7 Sudoeste 21 Sudoeste 0 -- -- 90
2019-12-10 16:00:00 3.7 16 Sudoeste 24 Sudoeste 0 -- -- 87
2019-12-10 15:00:00 5 17 Sudoeste 22 Sudoeste 0 -- -- 80
2019-12-10 14:00:00 8.8 8 Sur 13 Sur 0 -- -- 67
2019-12-10 13:00:00 8.2 3 Sur 11 Sudoeste 0 -- -- 75
2019-12-10 12:00:00 5 9 Sur 25 Sudoeste 0 -- -- 80
2019-12-10 11:00:00 2 9 Sudoeste 22 Oeste 0 -- -- 92
2019-12-10 10:00:00 1.2 16 Sudoeste 23 Sudoeste 0 -- -- 97
2019-12-10 09:00:00 0.5 9 Sur 18 Sudoeste 0 -- -- 98
2019-12-10 08:00:00 0.7 8 Sudoeste 24 Sudoeste 0 -- -- 98
2019-12-10 07:00:00 1.1 8 Sudoeste 15 Sudoeste 0 -- -- 99
2019-12-10 06:00:00 1.5 0 Calma 6 Sudoeste 0 -- -- 99
2019-12-10 05:00:00 2.6 4 Sudoeste 10 Sudoeste 0.2 -- -- 99
2019-12-10 04:00:00 3.4 2 Sur 4 Sudoeste 0.4 -- -- 100
2019-12-10 03:00:00 3.5 0 Calma 4 Sudoeste 0.4 -- -- 99
2019-12-10 02:00:00 3.5 2 Norte 6 Norte 0.6 -- -- 99
2019-12-10 01:00:00 3.8 3 Este 6 Sudeste 0.6 -- -- 98
2019-12-10 00:00:00 4.3 3 Sudeste 16 Norte 0.6 -- -- 96
2019-12-09 23:00:00 4.2 3 Nordeste 25 Norte 0.6 -- -- 94
2019-12-09 22:00:00 4.5 12 Norte 29 Norte 0.8 -- -- 92
2019-12-09 21:00:00 4.7 12 Nordeste 26 Nordeste 0.6 -- -- 89
2019-12-09 20:00:00 4.3 6 Norte 15 Noroeste 0.8 -- -- 90
2019-12-09 19:00:00 4.7 5 Nordeste 41 Este 0.6 -- -- 89
2019-12-09 18:00:00 4.6 9 Norte 18 Norte 0.8 -- -- 94
2019-12-09 17:00:00 4.7 6 Nordeste 13 Nordeste 0.8 -- -- 95
2019-12-09 16:00:00 4.9 9 Norte 15 Nordeste 0.6 -- -- 93
2019-12-09 15:00:00 4.9 3 Sudeste 28 Norte 0.6 -- -- 89
2019-12-09 14:00:00 8.1 2 Nordeste 50 Este 0 -- -- 72
2019-12-09 13:00:00 6.5 14 Norte 38 Norte 0.2 -- -- 78
2019-12-09 12:00:00 5.8 12 Norte 35 Norte 0.8 -- -- 88
2019-12-09 11:00:00 4.5 4 Sudeste 8 Noroeste 0.8 -- -- 98
2019-12-09 10:00:00 3.9 5 Sur 9 Noroeste 0.8 -- -- 97
2019-12-09 09:00:00 3.5 4 Sudoeste 22 Sudoeste 0 -- -- 91
2019-12-09 08:00:00 3.3 10 Sudoeste 27 Sudoeste 0 -- -- 90
2019-12-09 07:00:00 2.6 2 Norte 13 Sudoeste 0 -- -- 95
2019-12-09 06:00:00 2.1 6 Este 26 Sudoeste 0 -- -- 96
2019-12-09 05:00:00 1.3 2 Nordeste 32 Sudoeste 0 -- -- 95
2019-12-09 04:00:00 1.9 24 Sudoeste 35 Sudoeste 0 -- -- 95
2019-12-09 03:00:00 1.4 4 Sudeste 14 Sudoeste 0 -- -- 98
2019-12-09 02:00:00 2 10 Sudoeste 14 Sudoeste 0 -- -- 99
2019-12-09 01:00:00 3.4 2 Sur 14 Sudoeste 0 -- -- 96
2019-12-09 00:00:00 5 9 Sudoeste 19 Sudoeste 0 -- -- 98
2019-12-08 23:00:00 5.9 3 Sur 14 Oeste 0 -- -- 98
2019-12-08 22:00:00 6.2 0 Calma 6 Sur 0 -- -- 99
2019-12-08 21:00:00 7 3 Sudeste 9 Sudoeste 0 -- -- 99
2019-12-08 20:00:00 7.5 2 Este 22 Sudoeste 0.4 -- -- 97
2019-12-08 19:00:00 6.9 10 Sudoeste 15 Sudoeste 0.4 -- -- 95
2019-12-08 18:00:00 7.8 0 Calma 5 Oeste 0 -- -- 87
2019-12-08 17:00:00 9.1 2 Nordeste 13 Sudoeste 0 -- -- 77
2019-12-08 16:00:00 9.4 8 Sudoeste 18 Sudoeste 0 -- -- 73
2019-12-08 15:00:00 10.6 8 Sudoeste 11 Sudoeste 0 -- -- 69
2019-12-08 14:00:00 13.6 3 Sudoeste 5 Sudoeste 0 -- -- 60
2019-12-08 13:00:00 10.8 0 Calma 6 Nordeste 0 -- -- 65
2019-12-08 12:00:00 4 0 Calma 4 Norte 0 -- -- 97
2019-12-08 11:00:00 -0.7 0 Calma 5 Nordeste 0 -- -- 98
2019-12-08 10:00:00 -1.1 0 Calma 5 Sur 0 -- -- 97
2019-12-08 09:00:00 -0.5 4 Este 12 Sudoeste 0 -- -- 95
2019-12-08 08:00:00 -0.8 4 Sur 12 Sudoeste 0 -- -- 97
2019-12-08 07:00:00 -1.3 0 Calma 8 Sur 0 -- -- 96
2019-12-08 06:00:00 -0.1 0 Calma 15 Sur 0 -- -- 93
2019-12-08 05:00:00 -0.2 4 Sur 12 Sudoeste 0 -- -- 97
2019-12-08 04:00:00 -0.2 2 Sudoeste 10 Nordeste 0 -- -- 93
2019-12-08 03:00:00 1.1 9 Sur 26 Sudoeste 0 -- -- 91
2019-12-08 02:00:00 1.2 14 Sudoeste 25 Sudoeste 0 -- -- 94
2019-12-08 01:00:00 0.6 4 Sur 13 Sudoeste 0 -- -- 96
2019-12-08 00:00:00 0.9 4 Sudoeste 13 Sudoeste 0 -- -- 95
2019-12-07 23:00:00 1.3 5 Sur 12 Sudoeste 0 -- -- 96
2019-12-07 22:00:00 1.9 3 Sudoeste 16 Sudoeste 0 -- -- 93
2019-12-07 21:00:00 2.1 8 Sudoeste 15 Sudoeste 0 -- -- 94
2019-12-07 20:00:00 1.8 6 Sur 11 Sudoeste 0 -- -- 95
2019-12-07 19:00:00 2.4 2 Sudoeste 10 Sudoeste 0 -- -- 92
2019-12-07 18:00:00 3.4 7 Sudoeste 10 Sudoeste 0 -- -- 91
2019-12-07 17:00:00 4.8 5 Sudoeste 12 Sudoeste 0 -- -- 85
2019-12-07 16:00:00 6.1 3 Sudoeste 12 Sudoeste 0 -- -- 81
2019-12-07 15:00:00 9.9 4 Sur 10 Norte 0 -- -- 66
2019-12-07 14:00:00 13.1 6 Sur 9 Sudoeste 0 -- -- 52
2019-12-07 13:00:00 11 0 Calma 4 Sur 0 -- -- 63
2019-12-07 12:00:00 5.3 0 Calma 4 Nordeste 0 -- -- 85
2019-12-07 11:00:00 0.9 0 Calma 4 Sudeste 0 -- -- 95
2019-12-07 10:00:00 1 0 Calma 9 Sudoeste 0 -- -- 93
2019-12-07 09:00:00 1.3 5 Sur 17 Sur 0 -- -- 91
2019-12-07 08:00:00 0.1 4 Sudeste 13 Sudoeste 0 -- -- 95
2019-12-07 07:00:00 -0.2 5 Sur 9 Sudoeste 0 -- -- 97
2019-12-07 06:00:00 -0.2 3 Sudoeste 9 Sudoeste 0 -- -- 94
2019-12-07 05:00:00 1.4 0 Calma 11 Sudoeste 0 -- -- 89
2019-12-07 04:00:00 2.7 5 Sur 23 Sudoeste 0 -- -- 84
2019-12-07 03:00:00 2 14 Sudoeste 26 Sudoeste 0 -- -- 87
2019-12-07 02:00:00 1.6 9 Sudoeste 23 Sudoeste 0 -- -- 91
2019-12-07 01:00:00 0.9 5 Sudoeste 14 Sudoeste 0 -- -- 92
2019-12-07 00:00:00 2.2 7 Sur 15 Sudoeste 0 -- -- 90
2019-12-06 23:00:00 1.9 5 Sudoeste 13 Sudoeste 0 -- -- 92
2019-12-06 22:00:00 2.3 7 Sur 17 Sudoeste 0 -- -- 92
2019-12-06 21:00:00 2.7 9 Sur 16 Sudoeste 0 -- -- 92
2019-12-06 20:00:00 2.6 5 Sur 15 Sudoeste 0 -- -- 92
2019-12-06 19:00:00 3.9 13 Sudoeste 19 Sudoeste 0 -- -- 89
2019-12-06 18:00:00 4.6 10 Sudoeste 19 Sudoeste 0 -- -- 89
2019-12-06 17:00:00 5.1 5 Sur 14 Sudoeste 0 -- -- 88
2019-12-06 16:00:00 6 0 Calma 9 Sudoeste 0 -- -- 85
2019-12-06 15:00:00 9.3 4 Sudoeste 8 Sudoeste 0 -- -- 71
2019-12-06 14:00:00 12.7 0 Calma 6 Este 0 -- -- 53
2019-12-06 13:00:00 9.7 3 Nordeste 6 Nordeste 0 -- -- 71
2019-12-06 12:00:00 4.5 0 Calma 4 Nordeste 0 -- -- 100
2019-12-06 11:00:00 0 0 Calma 3 Sudoeste 0 -- -- 100
2019-12-06 10:00:00 -0.3 0 Calma 4 Noroeste 0 -- -- 98
2019-12-06 09:00:00 0.2 0 Calma 15 Sur 0 -- -- 97
2019-12-06 08:00:00 -0.6 4 Sudoeste 7 Sudoeste 0 -- -- 99
2019-12-06 07:00:00 -0.3 2 Sur 9 Sur 0 -- -- 99
2019-12-06 06:00:00 -0.3 5 Sur 10 Sur 0 -- -- 99
2019-12-06 05:00:00 -0.3 3 Sudoeste 6 Sudoeste 0 -- -- 96
2019-12-06 04:00:00 1.3 2 Norte 14 Sur 0 -- -- 95
2019-12-06 03:00:00 1.9 7 Sur 20 Sudoeste 0 -- -- 93
2019-12-06 02:00:00 2 10 Sudoeste 23 Sudoeste 0 -- -- 92
2019-12-06 01:00:00 1.9 9 Sudoeste 21 Sudoeste 0 -- -- 93
2019-12-06 00:00:00 1.8 8 Sur 15 Sur 0 -- -- 95
2019-12-05 23:00:00 2.2 6 Sur 13 Sur 0 -- -- 95
2019-12-05 22:00:00 2 6 Sur 11 Sudoeste 0 -- -- 98
2019-12-05 21:00:00 2.7 0 Calma 12 Sudoeste 0 -- -- 93
2019-12-05 20:00:00 3.9 5 Sur 12 Sudoeste 0 -- -- 91
2019-12-05 19:00:00 4.9 4 Sur 10 Sudoeste 0 -- -- 89
2019-12-05 18:00:00 5.5 2 Sur 3 Sur 0 -- -- 90
2019-12-05 17:00:00 7.9 2 Sudoeste 4 Sudoeste 0 -- -- 81
2019-12-05 16:00:00 9.6 0 Calma 5 Nordeste 0 -- -- 68
2019-12-05 15:00:00 9.4 6 Norte 12 Norte 0 -- -- 66
2019-12-05 14:00:00 8.8 3 Nordeste 5 Noroeste 0 -- -- 61
2019-12-05 13:00:00 7.8 0 Calma 6 Norte 0 -- -- 66
2019-12-05 12:00:00 6.3 2 Este 7 Norte 0 -- -- 79
2019-12-05 11:00:00 5.4 0 Calma 6 Nordeste 0 -- -- 85
2019-12-05 10:00:00 4.5 0 Calma 5 Noroeste 0 -- -- 87
2019-12-05 09:00:00 3.6 0 Calma 12 Oeste 0 -- -- 92
2019-12-05 08:00:00 3.6 0 Calma 5 Nordeste 0 -- -- 90
2019-12-05 07:00:00 3.5 3 Sur 8 Sudoeste 0 -- -- 88
2019-12-05 06:00:00 3.1 2 Sur 6 Sudoeste 0 -- -- 90
2019-12-05 05:00:00 2.6 0 Calma 6 Sudoeste 0 -- -- 93
2019-12-05 04:00:00 2.5 2 Nordeste 8 Sur 0 -- -- 93
2019-12-05 03:00:00 1.9 0 Calma 8 Oeste 0 -- -- 95
2019-12-05 02:00:00 1.6 3 Nordeste 8 Sudoeste 0 -- -- 96
2019-12-05 01:00:00 1.2 0 Calma 5 Sudoeste 0 -- -- 96
2019-12-05 00:00:00 1.6 0 Calma 14 Sudoeste 0 -- -- 94
2019-12-04 23:00:00 1.4 0 Calma 11 Sudoeste 0 -- -- 95
2019-12-04 22:00:00 2.2 0 Calma 13 Sur 0 -- -- 91
2019-12-04 21:00:00 2.9 4 Sur 10 Sudoeste 0 -- -- 90
2019-12-04 20:00:00 3.1 3 Sur 9 Sudoeste 0 -- -- 93
2019-12-04 19:00:00 3.8 0 Calma 6 Sudoeste 0 -- -- 92
2019-12-04 18:00:00 5.1 0 Calma 4 Sudoeste 0 -- -- 89
2019-12-04 17:00:00 6.8 0 Calma 3 Norte 0 -- -- 87
2019-12-04 16:00:00 8 2 Nordeste 7 Este 0 -- -- 74
2019-12-04 15:00:00 7.7 4 Este 8 Este 0 -- -- 74
2019-12-04 14:00:00 6.7 3 Nordeste 6 Nordeste 0 -- -- 82
2019-12-04 13:00:00 5.6 4 Noroeste 8 Noroeste 0 -- -- 89
2019-12-04 12:00:00 4.6 0 Calma 5 Nordeste 0 -- -- 97
2019-12-04 11:00:00 2.5 2 Este 6 Sur 0 -- -- 100
2019-12-04 10:00:00 0.9 0 Calma 5 Nordeste 0 -- -- 100
2019-12-04 09:00:00 -0.1 2 Sur 9 Sudoeste 0 -- -- 100
2019-12-04 08:00:00 -0.8 4 Sudoeste 9 Sur 0 -- -- 100
2019-12-04 07:00:00 -0.8 4 Sur 8 Sudoeste 0 -- -- 100
2019-12-04 06:00:00 -1.3 0 Calma 5 Sur 0 -- -- 100
2019-12-04 05:00:00 -0.9 0 Calma 5 Sudoeste 0 -- -- 100
2019-12-04 04:00:00 -0.7 0 Calma 5 Oeste 0 -- -- 100
2019-12-04 03:00:00 -0.7 0 Calma 8 Sudoeste 0 -- -- 100
2019-12-04 02:00:00 -1.2 0 Calma 6 Noroeste 0 -- -- 99
2019-12-04 01:00:00 -0.9 2 Este 9 Sudoeste 0 -- -- 99
2019-12-04 00:00:00 -1 3 Oeste 9 Oeste 0 -- -- 99
2019-12-03 23:00:00 -1 3 Sudoeste 5 Sudoeste 0 -- -- 97
2019-12-03 22:00:00 0.1 3 Sur 14 Sudoeste 0 -- -- 96
2019-12-03 21:00:00 0.7 10 Sudoeste 19 Sudoeste 0 -- -- 95
2019-12-03 20:00:00 1.5 4 Sur 15 Sudoeste 0 -- -- 95
2019-12-03 19:00:00 1.9 10 Sudoeste 13 Sudoeste 0 -- -- 95
2019-12-03 18:00:00 1.4 2 Sudoeste 5 Sur 0 -- -- 98
2019-12-03 17:00:00 2.1 0 Calma 5 Sudoeste 0 -- -- 94
2019-12-03 16:00:00 3.4 3 Sur 6 Sur 0 -- -- 92
2019-12-03 15:00:00 6 3 Noroeste 11 Este 0 -- -- 79
2019-12-03 14:00:00 7.3 4 Nordeste 8 Nordeste 0 -- -- 67
2019-12-03 13:00:00 6.4 4 Nordeste 9 Nordeste 0 -- -- 69
2019-12-03 12:00:00 3.7 2 Sudeste 4 Sur 0 -- -- 94
2019-12-03 11:00:00 0.3 0 Calma 3 Este 0.2 -- -- 99
2019-12-03 10:00:00 0.5 0 Calma 12 Sur 0.2 -- -- 98
2019-12-03 09:00:00 0.7 8 Sudoeste 10 Sudoeste 0 -- -- 97
2019-12-03 08:00:00 2.3 4 Oeste 9 Oeste 0.2 -- -- 98
2019-12-03 07:00:00 2.8 0 Calma 6 Nordeste 0.2 -- -- 99
2019-12-03 06:00:00 2.9 4 Nordeste 6 Nordeste 0.2 -- -- 99
2019-12-03 05:00:00 3.1 0 Calma 0 Calma 0.4 -- -- 99
2019-12-03 04:00:00 3.3 0 Calma 3 Norte 0.2 -- -- 99
2019-12-03 03:00:00 3.5 0 Calma 3 Nordeste 0.2 -- -- 98
2019-12-03 02:00:00 3.6 0 Calma 4 Este 0.2 -- -- 98
2019-12-03 01:00:00 3.8 2 Nordeste 5 Nordeste 0.4 -- -- 98
2019-12-03 00:00:00 4 0 Calma 4 Este 0.2 -- -- 97
2019-12-02 23:00:00 4.1 3 Nordeste 5 Nordeste 0.2 -- -- 95
2019-12-02 22:00:00 4.4 2 Este 6 Nordeste 0.2 -- -- 95
2019-12-02 21:00:00 4.6 0 Calma 2 Nordeste 0.2 -- -- 98
2019-12-02 20:00:00 4.7 0 Calma 6 Nordeste 0 -- -- 97
2019-12-02 19:00:00 5 0 Calma 5 Sur 0 -- -- 95
2019-12-02 18:00:00 6 0 Calma 9 Nordeste 0 -- -- 85
2019-12-02 17:00:00 6.4 4 Nordeste 14 Norte 0 -- -- 81
2019-12-02 16:00:00 7.6 6 Norte 14 Norte 0 -- -- 76
2019-12-02 15:00:00 8 8 Norte 15 Norte 0 -- -- 74
2019-12-02 14:00:00 8.3 8 Norte 15 Norte 0 -- -- 73
2019-12-02 13:00:00 8.1 4 Nordeste 15 Nordeste 0 -- -- 76
2019-12-02 12:00:00 7.4 3 Nordeste 6 Nordeste 0 -- -- 78
2019-12-02 11:00:00 4.6 2 Nordeste 5 Nordeste 0 -- -- 94
2019-12-02 10:00:00 2.1 0 Calma 7 Sudoeste 0 -- -- 100
2019-12-02 09:00:00 1.7 0 Calma 7 Sudoeste 0 -- -- 99
2019-12-02 08:00:00 2.2 2 Sudeste 6 Sudoeste 0 -- -- 99
2019-12-02 07:00:00 2.7 2 Sur 5 Nordeste 0 -- -- 99
2019-12-02 06:00:00 2.7 0 Calma 4 Sudoeste 0 -- -- 99
2019-12-02 05:00:00 2.5 0 Calma 5 Sur 0 -- -- 99
2019-12-02 04:00:00 2.5 3 Sur 7 Sur 0 -- -- 100
2019-12-02 03:00:00 2.3 0 Calma 6 Oeste 0 -- -- 100
2019-12-02 02:00:00 1.9 3 Sudoeste 8 Sudoeste 0 -- -- 100
2019-12-02 01:00:00 1.4 2 Sur 10 Sudoeste 0 -- -- 100
2019-12-02 00:00:00 1.6 2 Oeste 10 Sudoeste 0 -- -- 98
2019-12-01 23:00:00 2.2 0 Calma 4 Sudoeste 0 -- -- 97
2019-12-01 22:00:00 3.9 3 Sur 6 Sudoeste 0 -- -- 97
2019-12-01 21:00:00 4.1 0 Calma 4 Sudeste 0 -- -- 97
2019-12-01 20:00:00 4.8 0 Calma 6 Sudoeste 0 -- -- 95
2019-12-01 19:00:00 5.7 3 Sudoeste 12 Sudoeste 0 -- -- 90
2019-12-01 18:00:00 6.2 4 Sudoeste 8 Sur 0 -- -- 90
2019-12-01 17:00:00 7.2 0 Calma 8 Sudoeste 0 -- -- 89
2019-12-01 16:00:00 7.8 4 Sur 8 Sur 0 -- -- 81
2019-12-01 15:00:00 9.5 4 Norte 12 Norte 0 -- -- 67
2019-12-01 14:00:00 11.1 5 Nordeste 11 Norte 0 -- -- 59
2019-12-01 13:00:00 7.9 3 Nordeste 10 Nordeste 0 -- -- 78
2019-12-01 12:00:00 6.2 2 Nordeste 5 Nordeste 0 -- -- 100
2019-12-01 11:00:00 1.1 0 Calma 5 Norte 0 -- -- 100
2019-12-01 10:00:00 1 0 Calma 8 Sur 0.2 -- -- 99
2019-12-01 09:00:00 1.3 0 Calma 12 Sudoeste 0 -- -- 98
2019-12-01 08:00:00 1.6 7 Sur 12 Sur 0 -- -- 98
2019-12-01 07:00:00 1.9 5 Sur 14 Sudoeste 0 -- -- 99
2019-12-01 06:00:00 2.4 10 Sudoeste 20 Sudoeste 0 -- -- 98
2019-12-01 05:00:00 2.8 4 Sur 9 Sudoeste 0 -- -- 98
2019-12-01 04:00:00 4 0 Calma 15 Este 0 -- -- 93
2019-12-01 03:00:00 5.4 7 Este 49 Sudoeste 0.6 -- -- 88
2019-12-01 02:00:00 4.8 12 Sudoeste 29 Sudoeste 0.6 -- -- 94
2019-12-01 01:00:00 4.8 6 Sudoeste 15 Sur 0.8 -- -- 96
2019-12-01 00:00:00 4.9 5 Sur 12 Sudoeste 1.2 -- -- 95
2019-11-30 23:00:00 5.4 3 Oeste 8 Nordeste 2 -- -- 95
2019-11-30 22:00:00 6.1 3 Norte 14 Norte 2.4 -- -- 96
2019-11-30 21:00:00 7.1 5 Nordeste 16 Nordeste 1.8 -- -- 94
2019-11-30 20:00:00 8.1 5 Nordeste 21 Norte 0.2 -- -- 91
2019-11-30 19:00:00 10.1 12 Norte 24 Norte 0 -- -- 78
2019-11-30 18:00:00 10 5 Nordeste 11 Norte 0 -- -- 69
2019-11-30 17:00:00 12.7 3 Sudeste 34 Nordeste 0 -- -- 54
2019-11-30 16:00:00 16.8 10 Sudoeste 33 Sudoeste 0 -- -- 47
2019-11-30 15:00:00 18 14 Sudoeste 31 Sudoeste 0 -- -- 43
2019-11-30 14:00:00 19.6 18 Sudoeste 38 Sudoeste 0 -- -- 40
2019-11-30 13:00:00 17.8 8 Sudoeste 27 Sudoeste 0 -- -- 42
2019-11-30 12:00:00 17.1 15 Sur 37 Sudoeste 0 -- -- 40
2019-11-30 11:00:00 13.5 11 Sur 29 Sudoeste 0 -- -- 44
2019-11-30 10:00:00 10.2 15 Sudoeste 30 Sudoeste 0 -- -- 50
2019-11-30 09:00:00 2 2 Sudeste 10 Norte 0 -- -- 89
2019-11-30 08:00:00 0.1 2 Sudoeste 7 Norte 0 -- -- 95
2019-11-30 07:00:00 -0.3 3 Sudoeste 12 Sudoeste 0 -- -- 96
2019-11-30 06:00:00 -1.2 3 Sudoeste 8 Sur 0 -- -- 96
2019-11-30 05:00:00 -0.4 4 Oeste 18 Sudoeste 0 -- -- 92
2019-11-30 04:00:00 -0.1 5 Sur 13 Sudoeste 0 -- -- 92
2019-11-30 03:00:00 0.6 5 Sur 17 Sudoeste 0 -- -- 93
2019-11-30 02:00:00 0.5 4 Sudoeste 10 Sur 0 -- -- 97
2019-11-30 01:00:00 1 3 Sur 11 Sudoeste 0 -- -- 99
2019-11-30 00:00:00 1 3 Sudoeste 5 Sur 0 -- -- 98
2019-11-29 23:00:00 1.5 3 Sur 7 Sudoeste 0 -- -- 97
2019-11-29 22:00:00 2.4 2 Sudeste 21 Sudoeste 0 -- -- 96
2019-11-29 21:00:00 3.3 13 Sudoeste 19 Sudoeste 0 -- -- 95
2019-11-29 20:00:00 3.6 5 Sudoeste 15 Sudoeste 0 -- -- 95
2019-11-29 19:00:00 4.7 9 Sudoeste 15 Sudoeste 0 -- -- 94
2019-11-29 18:00:00 5.2 8 Sudoeste 14 Sudoeste 0 -- -- 95
2019-11-29 17:00:00 6.5 5 Sudoeste 10 Sudoeste 0 -- -- 90
2019-11-29 16:00:00 8.1 3 Sudoeste 9 Sudoeste 0 -- -- 87
2019-11-29 15:00:00 11.6 5 Sudoeste 13 Norte 0 -- -- 72
2019-11-29 14:00:00 13.2 4 Nordeste 8 Nordeste 0 -- -- 67
2019-11-29 13:00:00 12.3 2 Norte 9 Este 0 -- -- 71
2019-11-29 12:00:00 9.3 0 Calma 4 Norte 0 -- -- 90
2019-11-29 11:00:00 7.2 0 Calma 5 Sudoeste 0 -- -- 93
2019-11-29 10:00:00 6.1 0 Calma 6 Sudoeste 0 -- -- 98
2019-11-29 09:00:00 5.1 3 Sudoeste 7 Sudoeste 0.2 -- -- 98
2019-11-29 08:00:00 4.7 0 Calma 5 Sudeste 0 -- -- 97
2019-11-29 07:00:00 4.6 0 Calma 10 Sudoeste 0 -- -- 95
2019-11-29 06:00:00 4 7 Sudoeste 15 Sur 0 -- -- 96
2019-11-29 05:00:00 3.3 4 Sudoeste 10 Sudoeste 0 -- -- 97
2019-11-29 04:00:00 3.9 6 Sudoeste 15 Sudoeste 0 -- -- 97
2019-11-29 03:00:00 3.8 0 Calma 10 Sudoeste 0 -- -- 96
2019-11-29 02:00:00 4.6 6 Sudoeste 13 Sudoeste 0 -- -- 97
2019-11-29 01:00:00 5.4 3 Sudeste 21 Sudoeste 0 -- -- 92
2019-11-29 00:00:00 6.6 13 Sudoeste 17 Sudoeste 0 -- -- 92
2019-11-28 23:00:00 7 7 Sudoeste 10 Sudoeste 0 -- -- 94
2019-11-28 22:00:00 6.6 0 Calma 5 Sur 0 -- -- 96
2019-11-28 21:00:00 7.1 0 Calma 4 Norte 0 -- -- 93
2019-11-28 20:00:00 7.4 0 Calma 4 Sur 0 -- -- 92
2019-11-28 19:00:00 7.9 0 Calma 6 Sudeste 0 -- -- 90
2019-11-28 18:00:00 8.3 0 Calma 4 Este 0 -- -- 86
2019-11-28 17:00:00 10 4 Nordeste 7 Sudoeste 0 -- -- 79
2019-11-28 16:00:00 11 4 Sudoeste 11 Sudoeste 0 -- -- 73
2019-11-28 15:00:00 12.1 2 Sudoeste 6 Sudoeste 0 -- -- 71
2019-11-28 14:00:00 12.9 4 Nordeste 10 Norte 0 -- -- 60
2019-11-28 13:00:00 11.9 5 Norte 13 Norte 0 -- -- 66
2019-11-28 12:00:00 10.1 3 Nordeste 17 Nordeste 0 -- -- 68
2019-11-28 11:00:00 6.5 4 Nordeste 20 Sudoeste 0 -- -- 86
2019-11-28 10:00:00 6.2 12 Sudoeste 24 Sur 0 -- -- 80
2019-11-28 09:00:00 3.4 3 Sudoeste 6 Sudoeste 0 -- -- 95
2019-11-28 08:00:00 4.5 3 Sur 8 Nordeste 0 -- -- 91
2019-11-28 07:00:00 5.4 6 Sur 21 Sudoeste 0 -- -- 86
2019-11-28 06:00:00 4.9 10 Sur 19 Sudoeste 0 -- -- 89
2019-11-28 05:00:00 3.9 2 Nordeste 10 Sudoeste 0 -- -- 96
2019-11-28 04:00:00 3.8 4 Norte 10 Sur 0.2 -- -- 96
2019-11-28 03:00:00 4.2 10 Sur 15 Sudoeste 0 -- -- 95
2019-11-28 02:00:00 5 0 Calma 17 Oeste 0 -- -- 93
2019-11-28 01:00:00 5.6 3 Este 10 Sudoeste 0 -- -- 92
2019-11-28 00:00:00 5.6 3 Sudoeste 10 Sudoeste 0 -- -- 92
2019-11-27 23:00:00 5.3 0 Calma 9 Sudoeste 0 -- -- 95
2019-11-27 22:00:00 5.1 3 Sudoeste 6 Sur 0 -- -- 96
2019-11-27 21:00:00 6.6 2 Sur 9 Sudoeste 0 -- -- 92
2019-11-27 20:00:00 7.7 10 Sudoeste 17 Sudoeste 0 -- -- 88
2019-11-27 19:00:00 8.2 7 Sudoeste 14 Sudoeste 0 -- -- 86
2019-11-27 18:00:00 8.6 3 Sur 6 Sur 0 -- -- 84
2019-11-27 17:00:00 10.6 0 Calma 9 Nordeste 0 -- -- 78
2019-11-27 16:00:00 11.7 6 Norte 14 Nordeste 0 -- -- 65
2019-11-27 15:00:00 12.3 7 Norte 16 Nordeste 0 -- -- 61
2019-11-27 14:00:00 13 2 Nordeste 7 Este 0 -- -- 66
2019-11-27 06:00:00 -- -- -- -- -- -- -- -- --
2019-11-27 05:00:00 7.2 5 Sudoeste 10 Nordeste 0 -- -- 98
2019-11-27 04:00:00 8.8 4 Sur 16 Sudoeste 0.8 -- -- 94
2019-11-27 03:00:00 12.1 4 Nordeste 24 Norte 0.4 -- -- 83
2019-11-27 02:00:00 13.2 8 Nordeste 19 Sudeste 0 -- -- 64
2019-11-27 01:00:00 14.8 8 Sudoeste 33 Oeste 0 -- -- 52
2019-11-27 00:00:00 12.4 8 Sudoeste 28 Sudoeste 0 -- -- 80
2019-11-26 23:00:00 15.4 8 Sudoeste 26 Este 0 -- -- 60
2019-11-26 22:00:00 13.8 9 Sudoeste 23 Sur 0 -- -- 73
2019-11-26 21:00:00 15 8 Sur 29 Sudoeste 0 -- -- 65
2019-11-26 20:00:00 16.8 16 Sur 40 Sudoeste 0 -- -- 52
2019-11-26 19:00:00 15.8 22 Sur 35 Sudoeste 0 -- -- 51
2019-11-26 18:00:00 8.7 3 Este 9 Sudoeste 0 -- -- 86
2019-11-26 17:00:00 10.3 3 Sudoeste 8 Sudoeste 0 -- -- 80
2019-11-26 16:00:00 14.1 2 Nordeste 9 Sur 0 -- -- 70
2019-11-26 15:00:00 14.5 4 Sur 13 Sudoeste 0 -- -- 59
2019-11-26 14:00:00 16.3 3 Sudeste 9 Sudoeste 0 -- -- 53
2019-11-26 13:00:00 13.6 0 Calma 4 Norte 0 -- -- 61
2019-11-26 12:00:00 9.5 2 Sur 8 Nordeste 0 -- -- 77
2019-11-26 11:00:00 2.8 3 Este 5 Sur 0 -- -- 94
2019-11-26 10:00:00 3.1 2 Sudeste 15 Sudoeste 0 -- -- 89
2019-11-26 09:00:00 4.2 6 Sur 21 Sudoeste 0 -- -- 81
2019-11-26 08:00:00 2.4 7 Sur 17 Sudoeste 0 -- -- 90
2019-11-26 07:00:00 1.4 6 Sur 15 Sur 0 -- -- 96
2019-11-26 06:00:00 2.2 9 Sur 23 Sudoeste 0 -- -- 95
2019-11-26 05:00:00 1.7 7 Sur 13 Sur 0 -- -- 100
2019-11-26 04:00:00 1.2 4 Sudoeste 8 Sudoeste 0 -- -- 99
2019-11-26 03:00:00 2 3 Sur 9 Sur 0 -- -- 97
2019-11-26 02:00:00 2.9 6 Sur 17 Sudoeste 0 -- -- 97
2019-11-26 01:00:00 3.7 14 Sudoeste 22 Sudoeste 0 -- -- 95
2019-11-26 00:00:00 3.8 12 Sudoeste 19 Sudoeste 0 -- -- 97
2019-11-25 23:00:00 3.8 5 Sudoeste 11 Sudoeste 0 -- -- 97
2019-11-25 22:00:00 5.1 9 Sudoeste 21 Sudoeste 0 -- -- 93
2019-11-25 21:00:00 6.5 11 Sudoeste 19 Oeste 0 -- -- 92
2019-11-25 20:00:00 6.2 8 Sudoeste 13 Sudoeste 0 -- -- 97
2019-11-25 19:00:00 5.4 4 Sudoeste 6 Sudoeste 0 -- -- 96
2019-11-25 18:00:00 6.8 3 Sudoeste 5 Sur 0 -- -- 90
2019-11-25 17:00:00 10.3 0 Calma 6 Sur 0 -- -- 85
2019-11-25 16:00:00 11.7 0 Calma 3 Sur 0 -- -- 82
2019-11-25 15:00:00 11.3 2 Noroeste 6 Norte 0 -- -- 85
2019-11-25 14:00:00 10.3 4 Norte 8 Nordeste 0 -- -- 88
2019-11-25 13:00:00 9.7 5 Norte 8 Nordeste 0.2 -- -- 88
2019-11-25 12:00:00 8.4 4 Este 14 Nordeste 0 -- -- 85
2019-11-25 11:00:00 7.8 0 Calma 8 Nordeste 0 -- -- 92
2019-11-25 10:00:00 6.5 3 Nordeste 20 Sudoeste 0 -- -- 90
2019-11-25 09:00:00 4 5 Sur 20 Sudoeste 0 -- -- 97
2019-11-25 08:00:00 4.1 11 Sudoeste 17 Sur 0.2 -- -- 95
2019-11-25 07:00:00 3.2 4 Sur 10 Sudoeste 0 -- -- 94
2019-11-25 06:00:00 2.9 10 Sudoeste 19 Sudoeste 0 -- -- 92
2019-11-25 05:00:00 3.3 10 Sudoeste 19 Sudoeste 0 -- -- 89
2019-11-25 04:00:00 5 12 Sudoeste 32 Sur 0 -- -- 83
2019-11-25 03:00:00 4.4 14 Sudoeste 26 Sudoeste 0 -- -- 89
2019-11-25 02:00:00 3.4 5 Sudoeste 9 Sudoeste 0 -- -- 96
2019-11-25 01:00:00 3.2 3 Norte 14 Sudoeste 0 -- -- 94
2019-11-25 00:00:00 2.7 8 Sur 15 Sudoeste 0 -- -- 95
2019-11-24 23:00:00 2.3 5 Sur 17 Sur 0 -- -- 96
2019-11-24 22:00:00 2.5 9 Sur 15 Sudoeste 0 -- -- 96
2019-11-24 21:00:00 3.2 9 Sur 18 Sudoeste 0 -- -- 95
2019-11-24 20:00:00 4 10 Sudoeste 14 Sudoeste 0 -- -- 96
2019-11-24 19:00:00 4.1 12 Sudoeste 14 Sudoeste 0 -- -- 96
2019-11-24 18:00:00 4.3 6 Sudoeste 10 Sudoeste 0 -- -- 94
2019-11-24 17:00:00 7.1 0 Calma 4 Sudoeste 0 -- -- 91
2019-11-24 16:00:00 7.8 2 Sudoeste 8 Nordeste 0 -- -- 84
2019-11-24 15:00:00 7.7 7 Norte 12 Norte 0 -- -- 83
2019-11-24 14:00:00 7.8 4 Norte 7 Norte 0 -- -- 82
2019-11-24 13:00:00 7 2 Norte 5 Nordeste 0 -- -- 85
2019-11-24 12:00:00 6.1 0 Calma 5 Oeste 0 -- -- 88
2019-11-24 11:00:00 5.1 0 Calma 11 Sudoeste 0.6 -- -- 96
2019-11-24 10:00:00 3.9 0 Calma 5 Nordeste 0.2 -- -- 99
2019-11-24 09:00:00 3.1 0 Calma 8 Sudoeste 0 -- -- 100
2019-11-24 08:00:00 2.6 5 Sudoeste 9 Sudoeste 0 -- -- 100
2019-11-24 07:00:00 2.1 6 Sudoeste 11 Sudoeste 0 -- -- 100
2019-11-24 06:00:00 2.6 0 Calma 5 Sur 0.2 -- -- 99
2019-11-24 05:00:00 3.2 0 Calma 6 Sudoeste 0 -- -- 99
2019-11-24 04:00:00 3.5 2 Sudeste 5 Nordeste 0 -- -- 99
2019-11-24 03:00:00 3.7 2 Nordeste 5 Nordeste 0.4 -- -- 99
2019-11-24 02:00:00 3.8 2 Nordeste 8 Nordeste 0.6 -- -- 99
2019-11-24 01:00:00 3.8 5 Sur 9 Oeste 0.2 -- -- 97
2019-11-24 00:00:00 4.1 2 Este 7 Nordeste 0.2 -- -- 96
2019-11-23 23:00:00 3.8 4 Sudeste 10 Sudoeste 0 -- -- 96
2019-11-23 22:00:00 3.9 2 Sudoeste 8 Nordeste 0 -- -- 94
2019-11-23 21:00:00 4 3 Norte 11 Norte 0 -- -- 95
2019-11-23 20:00:00 4 0 Calma 6 Sudeste 0 -- -- 96
2019-11-23 19:00:00 4.2 0 Calma 10 Sudoeste 0 -- -- 96
2019-11-23 18:00:00 4.8 3 Noroeste 17 Este 0 -- -- 92
2019-11-23 17:00:00 5.5 3 Nordeste 37 Norte 0.2 -- -- 92
2019-11-23 16:00:00 6.1 8 Norte 16 Norte 0.8 -- -- 96
2019-11-23 15:00:00 6.4 3 Norte 7 Norte 1 -- -- 95
2019-11-23 14:00:00 6.4 0 Calma 6 Norte 1.4 -- -- 97
2019-11-23 13:00:00 6.5 0 Calma 6 Sudeste 1.4 -- -- 95
2019-11-23 12:00:00 7 0 Calma 3 Este 0 -- -- 90
2019-11-23 11:00:00 5.7 0 Calma 6 Sudeste 0 -- -- 93
2019-11-23 10:00:00 4.3 0 Calma 6 Oeste 0 -- -- 98
2019-11-23 09:00:00 2.4 3 Sudoeste 10 Sudoeste 0 -- -- 97
2019-11-23 08:00:00 2.3 0 Calma 13 Sudoeste 0 -- -- 96
2019-11-23 07:00:00 3.2 5 Sur 13 Sudoeste 0 -- -- 94
2019-11-23 06:00:00 4.7 8 Sur 24 Sudoeste 0 -- -- 92
2019-11-23 05:00:00 6 4 Sudoeste 29 Sudoeste 0 -- -- 88
2019-11-23 04:00:00 5.5 17 Sudoeste 28 Sudoeste 0 -- -- 98
2019-11-23 03:00:00 5.9 3 Sur 10 Sudoeste 0.2 -- -- 97
2019-11-23 02:00:00 7.4 8 Sur 28 Sudoeste 0.4 -- -- 95
2019-11-23 01:00:00 8.2 12 Sudoeste 27 Sudoeste 0 -- -- 89
2019-11-23 00:00:00 8.8 13 Sur 31 Sur 0.8 -- -- 83
2019-11-22 23:00:00 8.8 12 Sudoeste 44 Sudoeste 0.8 -- -- 86
2019-11-22 22:00:00 10.7 20 Oeste 47 Oeste 0 -- -- 70
2019-11-22 21:00:00 11.6 10 Norte 39 Noroeste 0 -- -- 58
2019-11-22 20:00:00 11.4 8 Noroeste 32 Oeste 0 -- -- 62
2019-11-22 19:00:00 9.9 5 Norte 27 Noroeste 0.2 -- -- 73
2019-11-22 18:00:00 10.9 11 Oeste 28 Sudoeste 0 -- -- 63
2019-11-22 17:00:00 11.5 17 Sudoeste 49 Sudoeste 0 -- -- 59
2019-11-22 16:00:00 12.4 26 Sudoeste 48 Sudoeste 0 -- -- 51
2019-11-22 15:00:00 13.1 22 Sudoeste 41 Sudoeste 0 -- -- 47
2019-11-22 14:00:00 12.8 17 Sudoeste 33 Sudoeste 0 -- -- 48
2019-11-22 13:00:00 12.6 24 Sudoeste 60 Sudoeste 0 -- -- 46
2019-11-22 12:00:00 12.8 28 Sudoeste 58 Oeste 0 -- -- 43
2019-11-22 11:00:00 11.6 26 Sudoeste 50 Sudoeste 0 -- -- 45
2019-11-22 10:00:00 11.2 25 Sudoeste 49 Sudoeste 0 -- -- 48
2019-11-22 09:00:00 9.9 22 Sudoeste 38 Sudoeste 0 -- -- 50
2019-11-22 08:00:00 5.4 8 Sur 23 Sudoeste 0 -- -- 69
2019-11-22 07:00:00 5.6 10 Sudoeste 26 Sur 0 -- -- 66
2019-11-22 06:00:00 5.2 17 Sudoeste 30 Sudoeste 0 -- -- 67
2019-11-22 05:00:00 1.6 15 Sudoeste 21 Sudoeste 0 -- -- 87
2019-11-22 04:00:00 -0.6 4 Sudoeste 8 Noroeste 0 -- -- 98
2019-11-22 03:00:00 -2 2 Oeste 11 Oeste 0 -- -- 99
2019-11-22 02:00:00 -2.3 2 Sudoeste 6 Sudoeste 0 -- -- 98
2019-11-22 01:00:00 -2 0 Calma 5 Sur 0 -- -- 97
2019-11-22 00:00:00 -1.6 0 Calma 7 Sudoeste 0 -- -- 94
2019-11-21 23:00:00 -0.5 3 Sudeste 14 Sudoeste 0 -- -- 93
2019-11-21 22:00:00 0.2 3 Sudoeste 15 Sur 0 -- -- 91
2019-11-21 21:00:00 1.3 3 Nordeste 14 Sudoeste 0 -- -- 90
2019-11-21 20:00:00 2.1 4 Nordeste 15 Oeste 0 -- -- 88
2019-11-21 19:00:00 2.4 4 Sur 10 Sudoeste 0 -- -- 89
2019-11-21 18:00:00 3.5 4 Sur 8 Sur 0 -- -- 86
2019-11-21 17:00:00 5.1 3 Sudoeste 10 Sudoeste 0 -- -- 78
2019-11-21 16:00:00 6.7 6 Sudoeste 12 Sur 0 -- -- 73
2019-11-21 15:00:00 8.8 5 Sur 8 Sudoeste 0 -- -- 65
2019-11-21 14:00:00 10 0 Calma 10 Norte 0 -- -- 53
2019-11-21 13:00:00 8.7 5 Nordeste 9 Norte 0 -- -- 57
2019-11-21 12:00:00 7 3 Este 7 Norte 0 -- -- 65
2019-11-21 11:00:00 1 2 Nordeste 5 Nordeste 0 -- -- 90
2019-11-21 10:00:00 -0.4 2 Sur 7 Norte 0 -- -- 89
2019-11-21 09:00:00 -0.5 5 Sur 12 Sur 0 -- -- 88
2019-11-21 08:00:00 0.5 3 Norte 9 Sur 0 -- -- 81
2019-11-21 07:00:00 2.2 3 Sur 24 Sudoeste 0 -- -- 71
2019-11-21 06:00:00 4.5 9 Sur 24 Sur 0 -- -- 53
2019-11-21 05:00:00 3.5 6 Sudoeste 27 Sudoeste 0 -- -- 60
2019-11-21 04:00:00 4.5 13 Sur 28 Sur 0 -- -- 52
2019-11-21 03:00:00 4.7 8 Sur 31 Oeste 0 -- -- 50
2019-11-21 02:00:00 4.7 10 Sur 29 Sudoeste 0 -- -- 49
2019-11-21 01:00:00 5.3 9 Sur 31 Sudoeste 0 -- -- 47
2019-11-21 00:00:00 5.2 12 Sudoeste 36 Sudoeste 0 -- -- 47
2019-11-20 23:00:00 5.1 13 Sudoeste 38 Sudoeste 0 -- -- 49
2019-11-20 22:00:00 5.6 11 Sudoeste 31 Sudoeste 0 -- -- 46
2019-11-20 21:00:00 5.8 12 Sur 28 Sur 0 -- -- 46
2019-11-20 20:00:00 5.1 14 Sudoeste 28 Sudoeste 0 -- -- 51
2019-11-20 19:00:00 4.9 11 Sudoeste 27 Sudoeste 0 -- -- 54
2019-11-20 18:00:00 5 13 Sudoeste 25 Sudoeste 0 -- -- 59
2019-11-20 17:00:00 5.9 13 Sudoeste 21 Sudoeste 0 -- -- 61
2019-11-20 16:00:00 7.9 11 Sur 30 Sudoeste 0 -- -- 53
2019-11-20 15:00:00 10.6 21 Sudoeste 43 Sudoeste 0 -- -- 36
2019-11-20 14:00:00 10.4 12 Sudoeste 24 Sudoeste 0 -- -- 40
2019-11-20 13:00:00 8 3 Este 8 Nordeste 0 -- -- 67
2019-11-20 12:00:00 4.4 3 Nordeste 8 Norte 0 -- -- 82
2019-11-20 11:00:00 -1.3 2 Sur 5 Nordeste 0 -- -- 99
2019-11-20 10:00:00 -2.7 0 Calma 5 Noroeste 0 -- -- 98
2019-11-20 09:00:00 -3.6 2 Nordeste 5 Sudoeste 0 -- -- 98
2019-11-20 08:00:00 -3.2 2 Nordeste 14 Sudoeste 0 -- -- 96
2019-11-20 07:00:00 -3.1 8 Sur 12 Sur 0 -- -- 97
2019-11-20 06:00:00 -2.7 2 Nordeste 13 Sur 0 -- -- 97
2019-11-20 05:00:00 -3.5 6 Sur 11 Sur 0 -- -- 99
2019-11-20 04:00:00 -3.8 3 Sur 8 Sudoeste 0 -- -- 99
2019-11-20 03:00:00 -3.7 0 Calma 8 Sudoeste 0 -- -- 99
2019-11-20 02:00:00 -3.6 0 Calma 6 Oeste 0 -- -- 97
2019-11-20 01:00:00 -2.8 0 Calma 13 Sudoeste 0 -- -- 96
2019-11-20 00:00:00 -2.2 8 Sur 14 Sudoeste 0 -- -- 96
2019-11-19 23:00:00 -2.1 3 Sudeste 13 Sudoeste 0 -- -- 96
2019-11-19 22:00:00 -2 2 Sur 12 Sudoeste 0 -- -- 96
2019-11-19 21:00:00 -1.6 3 Sur 17 Sudoeste 0 -- -- 95
2019-11-19 20:00:00 -1.2 13 Sudoeste 18 Sudoeste 0 -- -- 96
2019-11-19 19:00:00 -0.9 9 Sur 17 Sudoeste 0 -- -- 95
2019-11-19 18:00:00 -0.3 8 Sudoeste 20 Sudoeste 0 -- -- 93
2019-11-19 17:00:00 0.5 11 Sudoeste 19 Sudoeste 0 -- -- 90
2019-11-19 16:00:00 1.9 12 Sur 20 Sur 0 -- -- 83
2019-11-19 15:00:00 5.5 4 Sudoeste 10 Oeste 0 -- -- 74
2019-11-19 14:00:00 6.4 2 Nordeste 8 Este 0 -- -- 58
2019-11-19 13:00:00 5 5 Nordeste 8 Nordeste 0 -- -- 69
2019-11-19 12:00:00 2.7 3 Este 8 Este 0 -- -- 78
2019-11-19 11:00:00 -2.9 3 Nordeste 5 Nordeste 0 -- -- 97
2019-11-19 10:00:00 -2.9 2 Noroeste 19 Sudoeste 0 -- -- 92
2019-11-19 09:00:00 -3.3 10 Sudoeste 17 Sudoeste 0 -- -- 93
2019-11-19 08:00:00 -3.1 0 Calma 17 Sur 0 -- -- 91
2019-11-19 07:00:00 -3 11 Sudoeste 15 Sudoeste 0 -- -- 92
2019-11-19 06:00:00 -2.7 9 Sudoeste 17 Sudoeste 0 -- -- 94
2019-11-19 05:00:00 -2.2 11 Sudoeste 24 Sudoeste 0 -- -- 92
2019-11-19 04:00:00 -1.3 13 Sudoeste 19 Sudoeste 0 -- -- 91
2019-11-19 03:00:00 -0.8 17 Sudoeste 25 Sur 0 -- -- 97
2019-11-19 02:00:00 -1.6 2 Sudoeste 4 Sur 0 -- -- 100
2019-11-19 01:00:00 -1.7 0 Calma 5 Sudoeste 0 -- -- 99
2019-11-19 00:00:00 -1 2 Sudoeste 10 Sudoeste 0 -- -- 98
2019-11-18 23:00:00 -0.1 4 Sur 11 Sudoeste 0 -- -- 97
2019-11-18 22:00:00 0.7 3 Sur 8 Sudoeste 0 -- -- 94
2019-11-18 21:00:00 1.6 0 Calma 4 Nordeste 0 -- -- 93
2019-11-18 20:00:00 1.8 0 Calma 6 Nordeste 0 -- -- 94
2019-11-18 19:00:00 2 0 Calma 9 Nordeste 0 -- -- 91
2019-11-18 18:00:00 2.4 0 Calma 6 Norte 0 -- -- 92
2019-11-18 17:00:00 2.9 4 Nordeste 14 Nordeste 0 -- -- 87
2019-11-18 16:00:00 3.4 4 Nordeste 12 Nordeste 0 -- -- 84
2019-11-18 15:00:00 3.1 6 Norte 18 Nordeste 0 -- -- 85
2019-11-18 14:00:00 2.9 9 Norte 18 Norte 0 -- -- 86
2019-11-18 13:00:00 2.8 8 Nordeste 14 Norte 0 -- -- 89
2019-11-18 12:00:00 2.6 5 Norte 16 Nordeste 0 -- -- 89
2019-11-18 11:00:00 2.4 6 Nordeste 18 Nordeste 0 -- -- 94
2019-11-18 10:00:00 2 2 Este 5 Nordeste 0.2 -- -- 98
2019-11-18 09:00:00 1.4 2 Noroeste 8 Noroeste 0.8 -- -- 100
2019-11-18 08:00:00 1.1 0 Calma 3 Oeste 0.8 -- -- 99
2019-11-18 07:00:00 1.1 0 Calma 7 Noroeste 1.2 -- -- 99
2019-11-18 06:00:00 1.6 3 Nordeste 5 Nordeste 1 -- -- 98
2019-11-18 05:00:00 2.3 2 Nordeste 4 Sudoeste 0.8 -- -- 99
2019-11-18 04:00:00 2.1 2 Sudoeste 6 Sudoeste 0.4 -- -- 99
2019-11-18 03:00:00 2 0 Calma 9 Sudoeste 0 -- -- 99
2019-11-18 02:00:00 1.7 4 Sudoeste 9 Sudoeste 0 -- -- 99
2019-11-18 01:00:00 1.6 4 Sur 8 Sur 0 -- -- 99
2019-11-18 00:00:00 2 4 Sur 10 Sudoeste 0 -- -- 96
2019-11-17 23:00:00 2.7 3 Noroeste 14 Sudoeste 0 -- -- 98
2019-11-17 22:00:00 2.7 2 Sur 8 Oeste 0 -- -- 98
2019-11-17 21:00:00 2.4 4 Sudoeste 10 Sudoeste 0 -- -- 99
2019-11-17 20:00:00 1.9 0 Calma 6 Sudeste 0 -- -- 98
2019-11-17 19:00:00 2.8 3 Norte 9 Sudoeste 0 -- -- 95
2019-11-17 18:00:00 4.5 3 Sur 7 Norte 0 -- -- 91
2019-11-17 17:00:00 6.3 2 Nordeste 7 Sur 0 -- -- 86
2019-11-17 16:00:00 7.2 3 Sudeste 7 Norte 0 -- -- 83
2019-11-17 15:00:00 8.3 2 Nordeste 6 Nordeste 0 -- -- 70
2019-11-17 14:00:00 7.4 0 Calma 8 Norte 0 -- -- 78
2019-11-17 13:00:00 6.5 5 Norte 9 Norte 0 -- -- 85
2019-11-17 12:00:00 6.1 2 Este 7 Norte 0 -- -- 84
2019-11-17 11:00:00 3.1 2 Nordeste 6 Nordeste 0 -- -- 100
2019-11-17 10:00:00 2.2 0 Calma 11 Sudoeste 0 -- -- 99
2019-11-17 09:00:00 1.5 3 Noroeste 8 Sudoeste 0 -- -- 100
2019-11-17 08:00:00 1.1 3 Norte 8 Sudoeste 0 -- -- 100
2019-11-17 07:00:00 0.9 4 Sudoeste 9 Oeste 0.2 -- -- 100
2019-11-17 06:00:00 0.9 3 Sudoeste 6 Nordeste 0.2 -- -- 100
2019-11-17 05:00:00 0.7 0 Calma 3 Sudoeste 0.2 -- -- 100
2019-11-17 04:00:00 0.8 0 Calma 6 Nordeste 0.2 -- -- 99
2019-11-17 03:00:00 0.9 0 Calma 14 Sudoeste 0.8 -- -- 99
2019-11-17 02:00:00 0.9 5 Sudoeste 13 Sudoeste 1.4 -- -- 98
2019-11-17 01:00:00 1.5 8 Sudoeste 16 Sudoeste 0.6 -- -- 98
2019-11-17 00:00:00 1.4 7 Sudoeste 12 Sudoeste 0 -- -- 99
2019-11-16 23:00:00 1.3 5 Sudoeste 12 Sudoeste 0 -- -- 99
2019-11-16 22:00:00 1.1 3 Sur 8 Sudoeste 0 -- -- 99
2019-11-16 21:00:00 1.3 4 Sur 21 Sudoeste 0 -- -- 97
2019-11-16 20:00:00 1.6 11 Sudoeste 18 Sudoeste 0.4 -- -- 96
2019-11-16 19:00:00 1.9 3 Sudoeste 6 Sur 0.8 -- -- 95
2019-11-16 18:00:00 3 0 Calma 4 Este 0 -- -- 91
2019-11-16 17:00:00 3.9 0 Calma 5 Norte 0 -- -- 87
2019-11-16 16:00:00 4.7 0 Calma 5 Nordeste 0 -- -- 84
2019-11-16 15:00:00 5.5 2 Sudoeste 5 Norte 0 -- -- 77
2019-11-16 14:00:00 5.5 4 Nordeste 15 Sur 0 -- -- 65
2019-11-16 13:00:00 7.3 3 Nordeste 23 Sudoeste 0 -- -- 55
2019-11-16 12:00:00 3.7 4 Norte 32 Sudoeste 0 -- -- 67
2019-11-16 11:00:00 2 13 Sudoeste 26 Sudoeste 0 -- -- 70
2019-11-16 10:00:00 -0.8 12 Sudoeste 23 Sudoeste 0 -- -- 82
2019-11-16 09:00:00 -2.5 8 Sudoeste 16 Sudoeste 0 -- -- 90
2019-11-16 08:00:00 -2.7 8 Sudoeste 23 Sudoeste 0 -- -- 87
2019-11-16 07:00:00 -2.5 15 Sudoeste 23 Sudoeste 0 -- -- 89
2019-11-16 06:00:00 -2.5 14 Sudoeste 22 Sudoeste 0 -- -- 90
2019-11-16 05:00:00 -2.5 7 Sudoeste 20 Sudoeste 0 -- -- 92
2019-11-16 04:00:00 -2.1 10 Sudoeste 15 Sudoeste 0 -- -- 94
2019-11-16 03:00:00 -1.6 9 Sudoeste 18 Sudoeste 0 -- -- 93
2019-11-16 02:00:00 -0.9 12 Sudoeste 23 Sudoeste 0 -- -- 92
2019-11-16 01:00:00 0 11 Sudoeste 15 Sudoeste 0 -- -- 96
2019-11-16 00:00:00 0.7 8 Sudoeste 9 Sudoeste 0 -- -- 99
2019-11-15 23:00:00 0.7 2 Norte 4 Nordeste 0.2 -- -- 100
2019-11-15 22:00:00 0.3 0 Calma 3 Norte 0 -- -- 100
2019-11-15 21:00:00 0.4 0 Calma 3 Sudoeste 0 -- -- 99
2019-11-15 20:00:00 0.7 2 Sur 4 Sur 0 -- -- 99
2019-11-15 19:00:00 1.1 2 Sudoeste 7 Sudoeste 0 -- -- 98
2019-11-15 18:00:00 1.4 2 Este 6 Sur 0 -- -- 96
2019-11-15 17:00:00 2.4 2 Oeste 13 Norte 0.4 -- -- 92
2019-11-15 16:00:00 3.7 7 Norte 20 Norte 0 -- -- 83
2019-11-15 15:00:00 5.3 10 Norte 23 Norte 0 -- -- 71
2019-11-15 14:00:00 5.6 5 Nordeste 9 Este 0 -- -- 70
2019-11-15 13:00:00 5.1 3 Nordeste 6 Norte 0 -- -- 70
2019-11-15 12:00:00 2 3 Nordeste 9 Sur 0 -- -- 86
2019-11-15 11:00:00 1.2 3 Oeste 6 Sur 0 -- -- 86
2019-11-15 10:00:00 0.2 0 Calma 9 Norte 0 -- -- 86
2019-11-15 09:00:00 -0.8 4 Sudoeste 10 Sur 0 -- -- 88
2019-11-15 08:00:00 -1.4 6 Sur 19 Sudoeste 0 -- -- 87
2019-11-15 07:00:00 -1.9 14 Sudoeste 24 Sudoeste 0 -- -- 87
2019-11-15 06:00:00 -2.9 9 Sur 14 Sur 0 -- -- 94
2019-11-15 05:00:00 -2.4 2 Noroeste 13 Sudoeste 0 -- -- 93
2019-11-15 04:00:00 -2.3 8 Sur 14 Sudoeste 0 -- -- 94
2019-11-15 03:00:00 -2.3 4 Sudoeste 12 Sur 0 -- -- 94
2019-11-15 02:00:00 -1.4 6 Sudoeste 26 Sudoeste 0 -- -- 91
2019-11-15 01:00:00 -1.1 12 Sudoeste 25 Sudoeste 0 -- -- 90
2019-11-15 00:00:00 -0.8 15 Sudoeste 25 Sudoeste 0 -- -- 92